DAL9573 SKCL-SEQM
Flight info
| Callsign | DAL9573 |
|---|---|
| Flight time | 0h 53m |
| Altitude | 24000 |
| Route | CLO1D CLO R567 PPN W48 MER G675 IPI/N0420F230 G675 QIT |
| Aircraft | A320/M-SDE3FGHIRWY/LB1 |
Departure
| Time | 2026-05-03 22:48 |
|---|---|
| Airport | Alfonso Bonilla Aragon International Airport (SKCL) |
Arrival
| Time | 2026-05-03 23:42 |
|---|---|
| Airport | Mariscal Sucre International Airport (SEQM) |
| Time | Latitude | Longitude | Altitude | Speed | Heading |
|---|---|---|---|---|---|
| 2026-05-03 22:18 | 3.53667 | -76.38593 | 3163 ft | 0 kts | 261° |
| 2026-05-03 22:31 | 3.53668 | -76.38588 | 3162 ft | 2 kts | 261° |
| 2026-05-03 22:31 | 3.53666 | -76.38573 | 3163 ft | 2 kts | 326° |
| 2026-05-03 22:31 | 3.53660 | -76.38569 | 3162 ft | 0 kts | 341° |
| 2026-05-03 22:35 | 3.53675 | -76.38571 | 3162 ft | 4 kts | 353° |
| 2026-05-03 22:35 | 3.53705 | -76.38575 | 3162 ft | 4 kts | 352° |
| 2026-05-03 22:35 | 3.53746 | -76.38581 | 3162 ft | 11 kts | 350° |
| 2026-05-03 22:36 | 3.53828 | -76.38589 | 3162 ft | 11 kts | 15° |
| 2026-05-03 22:36 | 3.53883 | -76.38551 | 3163 ft | 8 kts | 39° |
| 2026-05-03 22:36 | 3.53922 | -76.38518 | 3163 ft | 9 kts | 39° |
| 2026-05-03 22:36 | 3.53972 | -76.38477 | 3163 ft | 9 kts | 40° |
| 2026-05-03 22:37 | 3.54018 | -76.38439 | 3163 ft | 9 kts | 40° |
| 2026-05-03 22:37 | 3.54078 | -76.38391 | 3165 ft | 12 kts | 34° |
| 2026-05-03 22:37 | 3.54151 | -76.38365 | 3164 ft | 11 kts | 12° |
| 2026-05-03 22:37 | 3.54220 | -76.38353 | 3164 ft | 10 kts | 10° |
| 2026-05-03 22:38 | 3.54291 | -76.38340 | 3166 ft | 10 kts | 11° |
| 2026-05-03 22:38 | 3.54357 | -76.38328 | 3165 ft | 10 kts | 10° |
| 2026-05-03 22:38 | 3.54438 | -76.38313 | 3166 ft | 13 kts | 10° |
| 2026-05-03 22:38 | 3.54528 | -76.38297 | 3165 ft | 14 kts | 10° |
| 2026-05-03 22:39 | 3.54634 | -76.38277 | 3165 ft | 15 kts | 10° |
| 2026-05-03 22:39 | 3.54735 | -76.38262 | 3167 ft | 14 kts | 8° |
| 2026-05-03 22:39 | 3.54828 | -76.38249 | 3166 ft | 13 kts | 8° |
| 2026-05-03 22:39 | 3.54917 | -76.38235 | 3167 ft | 13 kts | 10° |
| 2026-05-03 22:40 | 3.55010 | -76.38218 | 3166 ft | 14 kts | 10° |
| 2026-05-03 22:40 | 3.55125 | -76.38198 | 3167 ft | 18 kts | 9° |
| 2026-05-03 22:40 | 3.55246 | -76.38178 | 3169 ft | 17 kts | 10° |
| 2026-05-03 22:40 | 3.55362 | -76.38158 | 3168 ft | 16 kts | 10° |
| 2026-05-03 22:41 | 3.55470 | -76.38137 | 3171 ft | 15 kts | 10° |
| 2026-05-03 22:41 | 3.55571 | -76.38119 | 3169 ft | 14 kts | 10° |
| 2026-05-03 22:41 | 3.55642 | -76.38101 | 3170 ft | 9 kts | 27° |
| 2026-05-03 22:41 | 3.55664 | -76.38062 | 3170 ft | 5 kts | 83° |
| 2026-05-03 22:42 | 3.55664 | -76.38044 | 3170 ft | 0 kts | 94° |
| 2026-05-03 22:42 | 3.55663 | -76.38032 | 3171 ft | 5 kts | 96° |
| 2026-05-03 22:42 | 3.55660 | -76.38013 | 3171 ft | 2 kts | 99° |
| 2026-05-03 22:42 | 3.55648 | -76.37973 | 3171 ft | 8 kts | 117° |
| 2026-05-03 22:43 | 3.55590 | -76.37952 | 3170 ft | 8 kts | 187° |
| 2026-05-03 22:43 | 3.55587 | -76.37953 | 3170 ft | 0 kts | 188° |
| 2026-05-03 22:43 | 3.55585 | -76.37953 | 3170 ft | 2 kts | 188° |
| 2026-05-03 22:43 | 3.55520 | -76.37963 | 3170 ft | 16 kts | 190° |
| 2026-05-03 22:44 | 3.55377 | -76.37988 | 3169 ft | 25 kts | 189° |
| 2026-05-03 22:44 | 3.55201 | -76.38019 | 3166 ft | 29 kts | 190° |
| 2026-05-03 22:44 | 3.54987 | -76.38056 | 3165 ft | 31 kts | 189° |
| 2026-05-03 22:44 | 3.54774 | -76.38092 | 3163 ft | 30 kts | 189° |
| 2026-05-03 22:45 | 3.54571 | -76.38128 | 3165 ft | 29 kts | 190° |
| 2026-05-03 22:45 | 3.54374 | -76.38162 | 3164 ft | 29 kts | 190° |
| 2026-05-03 22:45 | 3.54151 | -76.38201 | 3166 ft | 34 kts | 189° |
| 2026-05-03 22:45 | 3.53926 | -76.38240 | 3165 ft | 32 kts | 190° |
| 2026-05-03 22:46 | 3.53714 | -76.38276 | 3163 ft | 31 kts | 189° |
| 2026-05-03 22:46 | 3.53503 | -76.38313 | 3161 ft | 30 kts | 189° |
| 2026-05-03 22:46 | 3.53299 | -76.38349 | 3159 ft | 29 kts | 190° |
| 2026-05-03 22:46 | 3.53112 | -76.38390 | 3158 ft | 20 kts | 198° |
| 2026-05-03 22:47 | 3.53022 | -76.38401 | 3157 ft | 5 kts | 108° |
| 2026-05-03 22:47 | 3.53046 | -76.38390 | 3157 ft | 4 kts | 8° |
| 2026-05-03 22:47 | 3.53078 | -76.38385 | 3157 ft | 10 kts | 9° |
| 2026-05-03 22:47 | 3.53372 | -76.38335 | 3160 ft | 84 kts | 9° |
| 2026-05-03 22:48 | 3.54209 | -76.38191 | 3166 ft | 156 kts | 10° |
| 2026-05-03 22:48 | 3.55422 | -76.37968 | 3578 ft | 183 kts | 9° |
| 2026-05-03 22:48 | 3.56680 | -76.37733 | 4614 ft | 185 kts | 7° |
| 2026-05-03 22:48 | 3.57963 | -76.37515 | 5315 ft | 193 kts | 8° |
| 2026-05-03 22:49 | 3.59370 | -76.37272 | 5547 ft | 213 kts | 9° |
| 2026-05-03 22:49 | 3.60850 | -76.37008 | 6009 ft | 220 kts | 9° |
| 2026-05-03 22:49 | 3.62383 | -76.36728 | 6484 ft | 227 kts | 9° |
| 2026-05-03 22:49 | 3.63954 | -76.36449 | 6980 ft | 232 kts | 9° |
| 2026-05-03 22:50 | 3.65567 | -76.36172 | 7493 ft | 238 kts | 9° |
| 2026-05-03 22:50 | 3.67213 | -76.35890 | 8034 ft | 241 kts | 9° |
| 2026-05-03 22:50 | 3.68870 | -76.35601 | 8550 ft | 244 kts | 9° |
| 2026-05-03 22:50 | 3.70539 | -76.35387 | 9072 ft | 245 kts | 355° |
| 2026-05-03 22:51 | 3.72112 | -76.35948 | 9561 ft | 243 kts | 319° |
| 2026-05-03 22:51 | 3.73111 | -76.37281 | 10026 ft | 242 kts | 288° |
| 2026-05-03 22:51 | 3.73272 | -76.38927 | 10505 ft | 240 kts | 257° |
| 2026-05-03 22:51 | 3.72551 | -76.40409 | 10986 ft | 239 kts | 226° |
| 2026-05-03 22:52 | 3.71161 | -76.41302 | 11433 ft | 241 kts | 195° |
| 2026-05-03 22:52 | 3.69487 | -76.41356 | 11880 ft | 245 kts | 171° |
| 2026-05-03 22:52 | 3.67797 | -76.41128 | 12420 ft | 245 kts | 173° |
| 2026-05-03 22:52 | 3.66102 | -76.40931 | 12947 ft | 246 kts | 173° |
| 2026-05-03 22:53 | 3.64386 | -76.40741 | 13389 ft | 250 kts | 173° |
| 2026-05-03 22:53 | 3.62637 | -76.40639 | 13816 ft | 256 kts | 179° |
| 2026-05-03 22:53 | 3.60778 | -76.40647 | 13910 ft | 279 kts | 179° |
| 2026-05-03 22:53 | 3.58768 | -76.40657 | 14133 ft | 298 kts | 179° |
| 2026-05-03 22:54 | 3.56637 | -76.40661 | 14399 ft | 314 kts | 179° |
| 2026-05-03 22:54 | 3.54392 | -76.40657 | 14628 ft | 332 kts | 179° |
| 2026-05-03 22:54 | 3.52028 | -76.40651 | 14855 ft | 348 kts | 179° |
| 2026-05-03 22:54 | 3.49555 | -76.40648 | 15098 ft | 363 kts | 179° |
| 2026-05-03 22:55 | 3.46984 | -76.40646 | 15353 ft | 376 kts | 179° |
| 2026-05-03 22:55 | 3.44389 | -76.40651 | 15867 ft | 379 kts | 179° |
| 2026-05-03 22:55 | 3.41739 | -76.40661 | 16395 ft | 383 kts | 178° |
| 2026-05-03 22:55 | 3.39065 | -76.40879 | 16888 ft | 389 kts | 189° |
| 2026-05-03 22:56 | 3.36412 | -76.41444 | 17400 ft | 392 kts | 190° |
| 2026-05-03 22:56 | 3.33734 | -76.42027 | 17911 ft | 395 kts | 190° |
| 2026-05-03 22:56 | 3.31034 | -76.42621 | 18423 ft | 399 kts | 190° |
| 2026-05-03 22:56 | 3.28316 | -76.43221 | 18921 ft | 401 kts | 190° |
| 2026-05-03 22:57 | 3.25574 | -76.43821 | 19402 ft | 405 kts | 190° |
| 2026-05-03 22:57 | 3.22811 | -76.44421 | 19882 ft | 408 kts | 190° |
| 2026-05-03 22:57 | 3.20029 | -76.45024 | 20347 ft | 411 kts | 190° |
| 2026-05-03 22:57 | 3.17225 | -76.45632 | 20804 ft | 414 kts | 190° |
| 2026-05-03 22:58 | 3.14400 | -76.46247 | 21252 ft | 417 kts | 190° |
| 2026-05-03 22:58 | 3.11587 | -76.46863 | 21677 ft | 420 kts | 190° |
| 2026-05-03 22:58 | 3.08725 | -76.47491 | 22093 ft | 423 kts | 190° |
| 2026-05-03 22:58 | 3.05839 | -76.48122 | 22498 ft | 425 kts | 190° |
| 2026-05-03 22:59 | 3.02932 | -76.48755 | 22881 ft | 428 kts | 190° |
| 2026-05-03 22:59 | 3.00015 | -76.49389 | 23255 ft | 431 kts | 190° |
| 2026-05-03 22:59 | 2.97075 | -76.50029 | 23616 ft | 433 kts | 190° |
| 2026-05-03 22:59 | 2.94117 | -76.50673 | 23931 ft | 436 kts | 190° |
| 2026-05-03 23:00 | 2.91153 | -76.51319 | 24023 ft | 437 kts | 190° |
| 2026-05-03 23:00 | 2.88182 | -76.51968 | 24053 ft | 437 kts | 190° |
| 2026-05-03 23:00 | 2.85210 | -76.52618 | 24063 ft | 437 kts | 190° |
| 2026-05-03 23:00 | 2.82240 | -76.53270 | 24075 ft | 437 kts | 190° |
| 2026-05-03 23:01 | 2.79267 | -76.53922 | 24088 ft | 437 kts | 190° |
| 2026-05-03 23:01 | 2.76293 | -76.54571 | 24085 ft | 437 kts | 190° |
| 2026-05-03 23:01 | 2.73322 | -76.55217 | 24099 ft | 437 kts | 190° |
| 2026-05-03 23:01 | 2.70344 | -76.55864 | 24106 ft | 438 kts | 190° |
| 2026-05-03 23:02 | 2.67368 | -76.56515 | 24111 ft | 437 kts | 190° |
| 2026-05-03 23:02 | 2.64396 | -76.57166 | 24117 ft | 437 kts | 190° |
| 2026-05-03 23:02 | 2.61422 | -76.57818 | 24119 ft | 437 kts | 190° |
| 2026-05-03 23:02 | 2.58487 | -76.58461 | 24119 ft | 437 kts | 190° |
| 2026-05-03 23:03 | 2.55513 | -76.59108 | 24119 ft | 437 kts | 190° |
| 2026-05-03 23:03 | 2.52538 | -76.59752 | 24121 ft | 437 kts | 190° |
| 2026-05-03 23:03 | 2.49565 | -76.60396 | 24123 ft | 437 kts | 190° |
| 2026-05-03 23:03 | 2.46617 | -76.61192 | 24138 ft | 442 kts | 199° |
| 2026-05-03 23:04 | 2.43818 | -76.62512 | 24133 ft | 446 kts | 209° |
| 2026-05-03 23:04 | 2.41300 | -76.64322 | 24145 ft | 448 kts | 218° |
| 2026-05-03 23:04 | 2.38890 | -76.66297 | 24163 ft | 447 kts | 218° |
| 2026-05-03 23:04 | 2.36476 | -76.68261 | 24164 ft | 447 kts | 218° |
| 2026-05-03 23:05 | 2.34067 | -76.70226 | 24162 ft | 446 kts | 218° |
| 2026-05-03 23:05 | 2.31663 | -76.72191 | 24159 ft | 446 kts | 218° |
| 2026-05-03 23:05 | 2.29258 | -76.74151 | 24167 ft | 445 kts | 217° |
| 2026-05-03 23:05 | 2.26843 | -76.76104 | 24166 ft | 446 kts | 217° |
| 2026-05-03 23:06 | 2.24449 | -76.78033 | 24159 ft | 449 kts | 217° |
| 2026-05-03 23:06 | 2.22036 | -76.80002 | 24158 ft | 447 kts | 218° |
| 2026-05-03 23:06 | 2.20408 | -76.81335 | 24141 ft | 450 kts | 218° |
| 2026-05-03 23:06 | 2.17204 | -76.83950 | 24099 ft | 445 kts | 218° |
| 2026-05-03 23:07 | 2.14801 | -76.85911 | 24105 ft | 446 kts | 217° |
| 2026-05-03 23:07 | 2.12396 | -76.87863 | 24102 ft | 446 kts | 217° |
| 2026-05-03 23:07 | 2.10001 | -76.89815 | 24098 ft | 443 kts | 218° |
| 2026-05-03 23:07 | 2.08391 | -76.91127 | 24100 ft | 443 kts | 218° |
| 2026-05-03 23:08 | 2.05999 | -76.93077 | 24092 ft | 443 kts | 217° |
| 2026-05-03 23:08 | 2.03611 | -76.95026 | 24098 ft | 443 kts | 218° |
| 2026-05-03 23:08 | 2.01218 | -76.96975 | 24096 ft | 443 kts | 218° |
| 2026-05-03 23:08 | 1.98855 | -76.98894 | 24087 ft | 443 kts | 218° |
| 2026-05-03 23:09 | 1.96435 | -77.00862 | 24091 ft | 443 kts | 217° |
| 2026-05-03 23:09 | 1.94077 | -77.02782 | 24084 ft | 443 kts | 217° |
| 2026-05-03 23:09 | 1.91655 | -77.04751 | 24081 ft | 443 kts | 217° |
| 2026-05-03 23:09 | 1.89288 | -77.06675 | 24082 ft | 443 kts | 217° |
| 2026-05-03 23:10 | 1.86896 | -77.08623 | 24083 ft | 444 kts | 217° |
| 2026-05-03 23:10 | 1.84504 | -77.10569 | 24069 ft | 444 kts | 218° |
| 2026-05-03 23:10 | 1.82112 | -77.12517 | 24080 ft | 444 kts | 217° |
| 2026-05-03 23:10 | 1.79648 | -77.14368 | 24080 ft | 442 kts | 210° |
| 2026-05-03 23:11 | 1.76941 | -77.15796 | 24077 ft | 439 kts | 200° |
| 2026-05-03 23:11 | 1.74078 | -77.16851 | 24074 ft | 438 kts | 197° |
| 2026-05-03 23:11 | 1.71203 | -77.17867 | 24076 ft | 438 kts | 197° |
| 2026-05-03 23:11 | 1.68325 | -77.18883 | 24081 ft | 439 kts | 197° |
| 2026-05-03 23:12 | 1.65449 | -77.19897 | 24088 ft | 439 kts | 197° |
| 2026-05-03 23:12 | 1.62564 | -77.20915 | 24096 ft | 439 kts | 197° |
| 2026-05-03 23:12 | 1.59686 | -77.21929 | 24100 ft | 439 kts | 197° |
| 2026-05-03 23:12 | 1.56803 | -77.22944 | 24108 ft | 439 kts | 197° |
| 2026-05-03 23:13 | 1.53915 | -77.23963 | 24110 ft | 440 kts | 197° |
| 2026-05-03 23:13 | 1.51024 | -77.24986 | 24119 ft | 441 kts | 197° |
| 2026-05-03 23:13 | 1.48137 | -77.26012 | 24131 ft | 439 kts | 197° |
| 2026-05-03 23:13 | 1.45253 | -77.27038 | 24123 ft | 439 kts | 197° |
| 2026-05-03 23:14 | 1.42372 | -77.28061 | 24121 ft | 439 kts | 198° |
| 2026-05-03 23:14 | 1.39576 | -77.29295 | 24119 ft | 442 kts | 207° |
| 2026-05-03 23:14 | 1.37000 | -77.30976 | 24122 ft | 443 kts | 214° |
| 2026-05-03 23:14 | 1.34533 | -77.32754 | 24121 ft | 443 kts | 214° |
| 2026-05-03 23:15 | 1.32028 | -77.34552 | 24123 ft | 443 kts | 214° |
| 2026-05-03 23:15 | 1.29523 | -77.36345 | 24125 ft | 443 kts | 214° |
| 2026-05-03 23:15 | 1.27018 | -77.38136 | 24128 ft | 443 kts | 213° |
| 2026-05-03 23:15 | 1.24512 | -77.39928 | 24131 ft | 442 kts | 213° |
| 2026-05-03 23:16 | 1.22008 | -77.41717 | 24132 ft | 442 kts | 213° |
| 2026-05-03 23:16 | 1.19508 | -77.43502 | 24150 ft | 443 kts | 213° |
| 2026-05-03 23:16 | 1.16999 | -77.45290 | 24172 ft | 443 kts | 213° |
| 2026-05-03 23:16 | 1.14485 | -77.47082 | 24181 ft | 444 kts | 213° |
| 2026-05-03 23:17 | 1.11968 | -77.48879 | 24210 ft | 445 kts | 214° |
| 2026-05-03 23:17 | 1.09450 | -77.50678 | 24238 ft | 445 kts | 214° |
| 2026-05-03 23:17 | 1.06933 | -77.52480 | 24250 ft | 445 kts | 214° |
| 2026-05-03 23:17 | 1.04417 | -77.54285 | 24289 ft | 446 kts | 214° |
| 2026-05-03 23:18 | 1.01891 | -77.56098 | 24306 ft | 447 kts | 214° |
| 2026-05-03 23:18 | 0.99365 | -77.57909 | 24328 ft | 447 kts | 213° |
| 2026-05-03 23:18 | 0.96836 | -77.59716 | 24343 ft | 446 kts | 214° |
| 2026-05-03 23:18 | 0.94309 | -77.61518 | 24352 ft | 446 kts | 213° |
| 2026-05-03 23:19 | 0.91779 | -77.63324 | 24371 ft | 446 kts | 213° |
| 2026-05-03 23:19 | 0.89249 | -77.65132 | 24409 ft | 452 kts | 213° |
| 2026-05-03 23:19 | 0.86663 | -77.66974 | 24494 ft | 461 kts | 213° |
| 2026-05-03 23:19 | 0.84021 | -77.68846 | 24616 ft | 468 kts | 213° |
| 2026-05-03 23:20 | 0.81337 | -77.70731 | 24751 ft | 474 kts | 213° |
| 2026-05-03 23:20 | 0.78624 | -77.72627 | 24897 ft | 478 kts | 213° |
| 2026-05-03 23:20 | 0.75884 | -77.74537 | 25066 ft | 481 kts | 213° |
| 2026-05-03 23:20 | 0.73123 | -77.76449 | 25249 ft | 484 kts | 213° |
| 2026-05-03 23:21 | 0.70347 | -77.78364 | 25444 ft | 486 kts | 213° |
| 2026-05-03 23:21 | 0.67591 | -77.80259 | 25609 ft | 488 kts | 213° |
| 2026-05-03 23:21 | 0.64783 | -77.82184 | 25788 ft | 491 kts | 213° |
| 2026-05-03 23:21 | 0.61960 | -77.84111 | 25995 ft | 492 kts | 212° |
| 2026-05-03 23:22 | 0.56462 | -77.88203 | 26387 ft | 497 kts | 223° |
| 2026-05-03 23:22 | 0.54161 | -77.90783 | 26542 ft | 500 kts | 232° |
| 2026-05-03 23:22 | 0.52256 | -77.93700 | 26712 ft | 502 kts | 240° |
| 2026-05-03 23:23 | 0.50677 | -77.96817 | 26913 ft | 503 kts | 243° |
| 2026-05-03 23:23 | 0.49128 | -77.99953 | 27095 ft | 503 kts | 243° |
| 2026-05-03 23:23 | 0.47369 | -78.02974 | 27279 ft | 503 kts | 233° |
| 2026-05-03 23:23 | 0.45084 | -78.05597 | 27445 ft | 495 kts | 222° |
| 2026-05-03 23:24 | 0.42609 | -78.07908 | 27519 ft | 479 kts | 221° |
| 2026-05-03 23:24 | 0.40192 | -78.10159 | 27309 ft | 472 kts | 221° |
| 2026-05-03 23:24 | 0.37804 | -78.12381 | 26931 ft | 467 kts | 221° |
| 2026-05-03 23:24 | 0.35432 | -78.14585 | 26551 ft | 465 kts | 221° |
| 2026-05-03 23:25 | 0.33069 | -78.16779 | 26136 ft | 462 kts | 221° |
| 2026-05-03 23:25 | 0.30724 | -78.18961 | 25707 ft | 459 kts | 221° |
| 2026-05-03 23:25 | 0.28397 | -78.21129 | 25263 ft | 457 kts | 221° |
| 2026-05-03 23:25 | 0.26104 | -78.23266 | 24809 ft | 456 kts | 221° |
| 2026-05-03 23:26 | 0.23762 | -78.25448 | 24449 ft | 459 kts | 221° |
| 2026-05-03 23:26 | 0.21446 | -78.27603 | 24269 ft | 453 kts | 221° |
| 2026-05-03 23:26 | 0.19137 | -78.29747 | 24298 ft | 453 kts | 221° |
| 2026-05-03 23:26 | 0.16824 | -78.31889 | 24290 ft | 453 kts | 221° |
| 2026-05-03 23:27 | 0.14518 | -78.34027 | 24270 ft | 452 kts | 221° |
| 2026-05-03 23:27 | 0.12236 | -78.36151 | 23951 ft | 445 kts | 221° |
| 2026-05-03 23:27 | 0.09982 | -78.38253 | 23356 ft | 441 kts | 221° |
| 2026-05-03 23:27 | 0.07746 | -78.40337 | 22796 ft | 437 kts | 221° |
| 2026-05-03 23:28 | 0.05532 | -78.42397 | 22251 ft | 434 kts | 221° |
| 2026-05-03 23:28 | 0.03330 | -78.44444 | 21730 ft | 431 kts | 221° |
| 2026-05-03 23:28 | 0.01147 | -78.46475 | 21223 ft | 427 kts | 221° |
| 2026-05-03 23:28 | -0.01157 | -78.48319 | 20695 ft | 422 kts | 210° |
| 2026-05-03 23:29 | -0.03745 | -78.49632 | 20183 ft | 415 kts | 198° |
| 2026-05-03 23:29 | -0.06505 | -78.50372 | 19668 ft | 407 kts | 185° |
| 2026-05-03 23:29 | -0.09307 | -78.50532 | 19157 ft | 400 kts | 174° |
| 2026-05-03 23:29 | -0.12058 | -78.50266 | 18612 ft | 396 kts | 171° |
| 2026-05-03 23:30 | -0.14831 | -78.49974 | 17747 ft | 402 kts | 171° |
| 2026-05-03 23:30 | -0.17612 | -78.49719 | 16716 ft | 398 kts | 172° |
| 2026-05-03 23:30 | -0.20337 | -78.49506 | 15950 ft | 387 kts | 173° |
| 2026-05-03 23:30 | -0.22925 | -78.49324 | 15817 ft | 359 kts | 173° |
| 2026-05-03 23:31 | -0.25324 | -78.49160 | 15737 ft | 333 kts | 173° |
| 2026-05-03 23:31 | -0.27552 | -78.49003 | 15659 ft | 310 kts | 173° |
| 2026-05-03 23:31 | -0.29631 | -78.48850 | 15580 ft | 290 kts | 173° |
| 2026-05-03 23:31 | -0.31572 | -78.48699 | 15470 ft | 270 kts | 172° |
| 2026-05-03 23:32 | -0.33388 | -78.48554 | 15352 ft | 256 kts | 172° |
| 2026-05-03 23:32 | -0.35123 | -78.48394 | 15276 ft | 238 kts | 167° |
| 2026-05-03 23:32 | -0.36609 | -78.47977 | 15100 ft | 209 kts | 154° |
| 2026-05-03 23:32 | -0.37812 | -78.47347 | 14915 ft | 184 kts | 146° |
| 2026-05-03 23:33 | -0.38822 | -78.46687 | 14755 ft | 170 kts | 142° |
| 2026-05-03 23:33 | -0.39749 | -78.45976 | 14606 ft | 167 kts | 138° |
| 2026-05-03 23:33 | -0.40614 | -78.45206 | 14461 ft | 166 kts | 134° |
| 2026-05-03 23:33 | -0.41412 | -78.44378 | 14316 ft | 165 kts | 130° |
| 2026-05-03 23:34 | -0.42124 | -78.43475 | 14166 ft | 165 kts | 119° |
| 2026-05-03 23:34 | -0.42482 | -78.42390 | 13973 ft | 165 kts | 96° |
| 2026-05-03 23:34 | -0.42373 | -78.41254 | 13782 ft | 166 kts | 75° |
| 2026-05-03 23:34 | -0.41809 | -78.40250 | 13596 ft | 169 kts | 51° |
| 2026-05-03 23:35 | -0.40860 | -78.39550 | 13410 ft | 173 kts | 28° |
| 2026-05-03 23:35 | -0.39761 | -78.39039 | 13186 ft | 174 kts | 28° |
| 2026-05-03 23:35 | -0.38660 | -78.38539 | 12959 ft | 174 kts | 28° |
| 2026-05-03 23:35 | -0.37560 | -78.38038 | 12724 ft | 174 kts | 27° |
| 2026-05-03 23:36 | -0.36460 | -78.37536 | 12493 ft | 174 kts | 27° |
| 2026-05-03 23:36 | -0.35360 | -78.37033 | 12265 ft | 174 kts | 27° |
| 2026-05-03 23:36 | -0.34260 | -78.36533 | 12033 ft | 174 kts | 27° |
| 2026-05-03 23:36 | -0.33175 | -78.36041 | 11814 ft | 173 kts | 27° |
| 2026-05-03 23:37 | -0.32081 | -78.35545 | 11591 ft | 172 kts | 27° |
| 2026-05-03 23:37 | -0.30999 | -78.35053 | 11366 ft | 170 kts | 26° |
| 2026-05-03 23:37 | -0.29854 | -78.34790 | 11156 ft | 170 kts | 4° |
| 2026-05-03 23:37 | -0.28678 | -78.34779 | 10928 ft | 168 kts | 1° |
| 2026-05-03 23:38 | -0.27516 | -78.34808 | 10685 ft | 166 kts | 0° |
| 2026-05-03 23:38 | -0.26369 | -78.34850 | 10448 ft | 164 kts | 359° |
| 2026-05-03 23:38 | -0.25240 | -78.34896 | 10215 ft | 161 kts | 359° |
| 2026-05-03 23:38 | -0.24120 | -78.34942 | 9987 ft | 160 kts | 359° |
| 2026-05-03 23:39 | -0.23012 | -78.34987 | 9758 ft | 159 kts | 359° |
| 2026-05-03 23:39 | -0.21912 | -78.35032 | 9535 ft | 157 kts | 358° |
| 2026-05-03 23:39 | -0.20820 | -78.35080 | 9313 ft | 157 kts | 358° |
| 2026-05-03 23:39 | -0.19733 | -78.35126 | 9092 ft | 156 kts | 358° |
| 2026-05-03 23:40 | -0.18652 | -78.35174 | 8867 ft | 155 kts | 358° |
| 2026-05-03 23:40 | -0.17576 | -78.35220 | 8633 ft | 154 kts | 358° |
| 2026-05-03 23:40 | -0.16504 | -78.35267 | 8429 ft | 154 kts | 358° |
| 2026-05-03 23:40 | -0.15446 | -78.35311 | 8208 ft | 154 kts | 358° |
| 2026-05-03 23:41 | -0.14372 | -78.35362 | 7998 ft | 154 kts | 358° |
| 2026-05-03 23:41 | -0.13345 | -78.35409 | 7887 ft | 130 kts | 358° |
| 2026-05-03 23:41 | -0.12624 | -78.35436 | 7858 ft | 71 kts | 358° |
| 2026-05-03 23:41 | -0.12212 | -78.35453 | 7839 ft | 57 kts | 358° |
| 2026-05-03 23:42 | -0.11874 | -78.35470 | 7825 ft | 29 kts | 351° |
| 2026-05-03 23:42 | -0.11709 | -78.35525 | 7821 ft | 21 kts | 331° |
| 2026-05-03 23:42 | -0.11625 | -78.35582 | 7820 ft | 13 kts | 317° |
| 2026-05-03 23:42 | -0.11655 | -78.35639 | 7819 ft | 11 kts | 194° |
| 2026-05-03 23:43 | -0.11717 | -78.35641 | 7824 ft | 7 kts | 176° |
| 2026-05-03 23:43 | -0.11787 | -78.35637 | 7822 ft | 14 kts | 177° |
| 2026-05-03 23:43 | -0.11881 | -78.35633 | 7828 ft | 13 kts | 178° |
| 2026-05-03 23:43 | -0.11986 | -78.35630 | 7830 ft | 16 kts | 178° |
| 2026-05-03 23:44 | -0.12091 | -78.35626 | 7830 ft | 14 kts | 178° |
| 2026-05-03 23:44 | -0.12174 | -78.35622 | 7832 ft | 10 kts | 177° |
| 2026-05-03 23:44 | -0.12254 | -78.35619 | 7837 ft | 13 kts | 179° |
| 2026-05-03 23:44 | -0.12336 | -78.35638 | 7836 ft | 12 kts | 220° |
| 2026-05-03 23:45 | -0.12360 | -78.35716 | 7836 ft | 13 kts | 266° |
| 2026-05-03 23:45 | -0.12364 | -78.35806 | 7839 ft | 11 kts | 268° |
| 2026-05-03 23:45 | -0.12367 | -78.35882 | 7841 ft | 9 kts | 267° |
| 2026-05-03 23:45 | -0.12369 | -78.35922 | 7842 ft | 3 kts | 267° |
| 2026-05-03 23:46 | -0.12369 | -78.35929 | 7840 ft | 0 kts | 267° |